Portada
METAR-TAF:

METAR-TAF

Aeroports :

Aeroport de Copenhaguen

Copenhaguen, Dinamarca

latitud: 55-37N, longitud: 012-39E, altitud: 5 m

Observació

L'informe es va fer fa 32 minuts, a les 21:20 UTC
Vent 8 kt del Est
Temperatura 6°C
Humitat 93%
Pressió 1015 hPa
Visibilitat 10 km o més

METAR: EKCH 142120Z AUTO 09008KT 9999 FEW220/// 06/05 Q1015 NOSIG

Hora: 22:52 (21:52 UTC)

Pronòstic

L'informe es va fer fa 4 hores i 45 minuts, a les 17:07 UTC
Pronòstic vàlid del 14 a les 18 UTC al 15 a les 18 UTC
Vent 10 kt del Est
Visibilitat 10 km o més
Núvols disperses a una alçada de 1000 ft
Temporalment
l' 14 a les 18 UTC al 15 a les 03 UTC
Cel ennuvolat a una alçada de 1000 ft
Evolucionant progressivament
l' 15 a les 03 UTC al 15 a les 06 UTC
Vent 18 kt del Est amb ràfegues de 30 kt
Evolucionant progressivament
l' 15 a les 15 UTC al 15 a les 18 UTC
Cel ennuvolat a una alçada de 1000 ft

TAF: EKCH 141707Z 1418/1518 10010KT 9999 SCT010 TEMPO 1418/1503 BKN010 BECMG 1503/1506 09018G30KT BECMG 1515/1518 BKN010

Observacions i pronòstics meteorològics de més de 4000 aeroports (METAR i TAF).

Les estacions disponibles són els punts grocs i vermells al mapa.

Posi el ratolí al punt desitjat per veure el nom de l'estació.

Feu clic per veure les observacions i els pronòstics meteorològics.

Per canviar el mapa: feu clic els botons verds amb una creu de color negre per apropar; al botó verd amb un guió per allunyar la imatge; o en les fletxes verdes per a mapes adjacents.


METAR-TAF: